sensor_id;sensor_type;location;lat;lon;timestamp;temperature;humidity
2897;DHT22;1458;49.728;9.228;2023-03-13T00:01:10;9.20;99.90
2897;DHT22;1458;49.728;9.228;2023-03-13T00:03:40;9.10;99.90
2897;DHT22;1458;49.728;9.228;2023-03-13T00:06:08;9.10;99.90
2897;DHT22;1458;49.728;9.228;2023-03-13T00:08:36;9.00;99.90
2897;DHT22;1458;49.728;9.228;2023-03-13T00:11:04;9.10;99.90
2897;DHT22;1458;49.728;9.228;2023-03-13T00:13:32;9.00;99.90
2897;DHT22;1458;49.728;9.228;2023-03-13T00:16:00;9.00;99.90
2897;DHT22;1458;49.728;9.228;2023-03-13T00:18:29;9.00;99.90
2897;DHT22;1458;49.728;9.228;2023-03-13T00:21:01;9.00;99.90
2897;DHT22;1458;49.728;9.228;2023-03-13T00:23:31;9.10;99.90
2897;DHT22;1458;49.728;9.228;2023-03-13T00:26:00;9.40;99.90
2897;DHT22;1458;49.728;9.228;2023-03-13T00:28:32;9.30;99.90
2897;DHT22;1458;49.728;9.228;2023-03-13T00:31:01;9.30;99.90
2897;DHT22;1458;49.728;9.228;2023-03-13T00:33:31;9.40;99.90
2897;DHT22;1458;49.728;9.228;2023-03-13T00:36:01;9.60;99.90
2897;DHT22;1458;49.728;9.228;2023-03-13T00:38:30;9.60;99.90
2897;DHT22;1458;49.728;9.228;2023-03-13T00:40:59;9.50;99.90
2897;DHT22;1458;49.728;9.228;2023-03-13T00:43:28;9.50;99.90
2897;DHT22;1458;49.728;9.228;2023-03-13T00:45:56;9.60;99.90
2897;DHT22;1458;49.728;9.228;2023-03-13T00:48:24;9.70;99.90
2897;DHT22;1458;49.728;9.228;2023-03-13T00:50:53;9.70;99.90
2897;DHT22;1458;49.728;9.228;2023-03-13T00:53:22;9.70;99.90
2897;DHT22;1458;49.728;9.228;2023-03-13T00:55:54;9.70;99.90
2897;DHT22;1458;49.728;9.228;2023-03-13T00:58:23;9.60;99.90
2897;DHT22;1458;49.728;9.228;2023-03-13T01:00:52;9.70;99.90
2897;DHT22;1458;49.728;9.228;2023-03-13T01:03:22;9.70;99.90
2897;DHT22;1458;49.728;9.228;2023-03-13T01:05:57;9.80;99.90
2897;DHT22;1458;49.728;9.228;2023-03-13T01:08:27;9.70;99.90
2897;DHT22;1458;49.728;9.228;2023-03-13T01:10:59;9.60;99.90
2897;DHT22;1458;49.728;9.228;2023-03-13T01:13:28;9.50;99.90
2897;DHT22;1458;49.728;9.228;2023-03-13T01:16:00;9.50;99.90
2897;DHT22;1458;49.728;9.228;2023-03-13T01:18:28;9.50;99.90
2897;DHT22;1458;49.728;9.228;2023-03-13T01:20:56;9.40;99.90
2897;DHT22;1458;49.728;9.228;2023-03-13T01:23:23;9.40;99.90
2897;DHT22;1458;49.728;9.228;2023-03-13T01:25:53;9.50;99.90
2897;DHT22;1458;49.728;9.228;2023-03-13T01:28:21;9.50;99.90
2897;DHT22;1458;49.728;9.228;2023-03-13T01:30:48;9.50;99.90
2897;DHT22;1458;49.728;9.228;2023-03-13T01:33:16;9.40;99.90
2897;DHT22;1458;49.728;9.228;2023-03-13T01:35:44;9.40;99.90
2897;DHT22;1458;49.728;9.228;2023-03-13T01:38:13;9.30;99.90
2897;DHT22;1458;49.728;9.228;2023-03-13T01:40:41;9.40;99.90
2897;DHT22;1458;49.728;9.228;2023-03-13T01:43:19;9.40;99.90
2897;DHT22;1458;49.728;9.228;2023-03-13T01:45:56;9.50;99.90
2897;DHT22;1458;49.728;9.228;2023-03-13T01:48:34;9.60;99.90
2897;DHT22;1458;49.728;9.228;2023-03-13T01:51:08;9.70;99.90
2897;DHT22;1458;49.728;9.228;2023-03-13T01:53:41;9.70;99.90
2897;DHT22;1458;49.728;9.228;2023-03-13T01:56:14;9.70;99.90
2897;DHT22;1458;49.728;9.228;2023-03-13T01:58:47;9.90;99.90
2897;DHT22;1458;49.728;9.228;2023-03-13T02:01:15;9.80;99.90
2897;DHT22;1458;49.728;9.228;2023-03-13T02:03:43;9.90;99.90
2897;DHT22;1458;49.728;9.228;2023-03-13T02:06:11;10.10;99.90
2897;DHT22;1458;49.728;9.228;2023-03-13T02:08:41;10.10;99.90
2897;DHT22;1458;49.728;9.228;2023-03-13T02:11:19;10.10;99.90
2897;DHT22;1458;49.728;9.228;2023-03-13T02:13:53;10.30;99.90
2897;DHT22;1458;49.728;9.228;2023-03-13T02:16:22;10.20;99.90
2897;DHT22;1458;49.728;9.228;2023-03-13T02:18:50;10.20;99.90
2897;DHT22;1458;49.728;9.228;2023-03-13T02:21:28;10.20;99.90
2897;DHT22;1458;49.728;9.228;2023-03-13T02:24:08;10.30;99.90
2897;DHT22;1458;49.728;9.228;2023-03-13T02:26:41;10.30;99.90
2897;DHT22;1458;49.728;9.228;2023-03-13T02:29:10;10.30;99.90
2897;DHT22;1458;49.728;9.228;2023-03-13T02:31:45;10.40;99.90
2897;DHT22;1458;49.728;9.228;2023-03-13T02:34:14;10.40;99.90
2897;DHT22;1458;49.728;9.228;2023-03-13T02:36:45;10.40;99.90
2897;DHT22;1458;49.728;9.228;2023-03-13T02:39:16;10.50;99.90
2897;DHT22;1458;49.728;9.228;2023-03-13T02:41:46;10.50;99.90
2897;DHT22;1458;49.728;9.228;2023-03-13T02:44:14;10.50;99.90
2897;DHT22;1458;49.728;9.228;2023-03-13T02:46:46;10.50;99.90
2897;DHT22;1458;49.728;9.228;2023-03-13T02:49:22;10.40;99.90
2897;DHT22;1458;49.728;9.228;2023-03-13T02:51:52;10.50;99.90
2897;DHT22;1458;49.728;9.228;2023-03-13T02:54:22;10.40;99.90
2897;DHT22;1458;49.728;9.228;2023-03-13T02:56:54;10.40;99.90
2897;DHT22;1458;49.728;9.228;2023-03-13T02:59:24;10.30;99.90
2897;DHT22;1458;49.728;9.228;2023-03-13T03:01:51;10.20;99.90
2897;DHT22;1458;49.728;9.228;2023-03-13T03:04:19;10.20;99.90
2897;DHT22;1458;49.728;9.228;2023-03-13T03:06:52;10.10;99.90
2897;DHT22;1458;49.728;9.228;2023-03-13T03:09:22;10.00;99.90
2897;DHT22;1458;49.728;9.228;2023-03-13T03:11:55;10.10;99.90
2897;DHT22;1458;49.728;9.228;2023-03-13T03:14:26;10.00;99.90
2897;DHT22;1458;49.728;9.228;2023-03-13T03:16:53;10.10;99.90
2897;DHT22;1458;49.728;9.228;2023-03-13T03:19:23;10.00;99.90
2897;DHT22;1458;49.728;9.228;2023-03-13T03:21:50;9.90;99.90
2897;DHT22;1458;49.728;9.228;2023-03-13T03:24:18;9.90;99.90
2897;DHT22;1458;49.728;9.228;2023-03-13T03:26:46;9.90;99.90
2897;DHT22;1458;49.728;9.228;2023-03-13T03:29:23;9.90;99.90
2897;DHT22;1458;49.728;9.228;2023-03-13T03:31:53;9.80;99.90
2897;DHT22;1458;49.728;9.228;2023-03-13T03:34:21;9.80;99.90
2897;DHT22;1458;49.728;9.228;2023-03-13T03:36:49;9.70;99.90
2897;DHT22;1458;49.728;9.228;2023-03-13T03:39:16;9.70;99.90
2897;DHT22;1458;49.728;9.228;2023-03-13T03:41:44;9.70;99.90
2897;DHT22;1458;49.728;9.228;2023-03-13T03:44:11;9.80;99.90
2897;DHT22;1458;49.728;9.228;2023-03-13T03:46:50;9.80;99.90
2897;DHT22;1458;49.728;9.228;2023-03-13T03:49:17;9.80;99.90
2897;DHT22;1458;49.728;9.228;2023-03-13T03:51:45;9.90;99.90
2897;DHT22;1458;49.728;9.228;2023-03-13T03:54:14;9.80;99.90
2897;DHT22;1458;49.728;9.228;2023-03-13T03:56:41;9.80;99.90
2897;DHT22;1458;49.728;9.228;2023-03-13T03:59:09;9.90;99.90
2897;DHT22;1458;49.728;9.228;2023-03-13T04:01:43;10.00;99.90
2897;DHT22;1458;49.728;9.228;2023-03-13T04:04:13;10.00;99.90
2897;DHT22;1458;49.728;9.228;2023-03-13T04:06:43;9.90;99.90
2897;DHT22;1458;49.728;9.228;2023-03-13T04:09:11;9.90;99.90
2897;DHT22;1458;49.728;9.228;2023-03-13T04:11:39;9.80;99.90
2897;DHT22;1458;49.728;9.228;2023-03-13T04:14:08;9.70;99.90
2897;DHT22;1458;49.728;9.228;2023-03-13T04:16:35;9.70;99.90
2897;DHT22;1458;49.728;9.228;2023-03-13T04:19:03;9.70;99.90
2897;DHT22;1458;49.728;9.228;2023-03-13T04:21:33;9.60;99.90
2897;DHT22;1458;49.728;9.228;2023-03-13T04:24:06;9.50;99.90
2897;DHT22;1458;49.728;9.228;2023-03-13T04:26:35;9.50;99.90
2897;DHT22;1458;49.728;9.228;2023-03-13T04:29:03;9.40;99.90
2897;DHT22;1458;49.728;9.228;2023-03-13T04:31:51;9.40;99.90
2897;DHT22;1458;49.728;9.228;2023-03-13T04:34:29;9.30;99.90
2897;DHT22;1458;49.728;9.228;2023-03-13T04:37:27;9.30;99.90
2897;DHT22;1458;49.728;9.228;2023-03-13T04:40:13;9.20;99.90
2897;DHT22;1458;49.728;9.228;2023-03-13T04:43:03;9.30;99.90
2897;DHT22;1458;49.728;9.228;2023-03-13T04:45:51;9.20;99.90
2897;DHT22;1458;49.728;9.228;2023-03-13T04:48:38;9.20;99.90
2897;DHT22;1458;49.728;9.228;2023-03-13T04:51:32;9.20;99.90
2897;DHT22;1458;49.728;9.228;2023-03-13T04:54:30;9.20;99.90
2897;DHT22;1458;49.728;9.228;2023-03-13T04:57:20;9.20;99.90
2897;DHT22;1458;49.728;9.228;2023-03-13T04:59:53;9.20;99.90
2897;DHT22;1458;49.728;9.228;2023-03-13T05:02:44;9.20;99.90
2897;DHT22;1458;49.728;9.228;2023-03-13T05:05:35;9.30;99.90
2897;DHT22;1458;49.728;9.228;2023-03-13T05:08:17;9.30;99.90
2897;DHT22;1458;49.728;9.228;2023-03-13T05:11:06;9.20;99.90
2897;DHT22;1458;49.728;9.228;2023-03-13T05:13:58;9.30;99.90
2897;DHT22;1458;49.728;9.228;2023-03-13T05:16:40;9.40;99.90
2897;DHT22;1458;49.728;9.228;2023-03-13T05:19:26;9.30;99.90
2897;DHT22;1458;49.728;9.228;2023-03-13T05:22:20;9.30;99.90
2897;DHT22;1458;49.728;9.228;2023-03-13T05:25:05;9.40;99.90
2897;DHT22;1458;49.728;9.228;2023-03-13T05:27:57;9.40;99.90
2897;DHT22;1458;49.728;9.228;2023-03-13T05:30:37;9.50;99.90
2897;DHT22;1458;49.728;9.228;2023-03-13T05:33:31;9.70;99.90
2897;DHT22;1458;49.728;9.228;2023-03-13T05:36:23;9.70;99.90
2897;DHT22;1458;49.728;9.228;2023-03-13T05:39:23;9.70;99.90
2897;DHT22;1458;49.728;9.228;2023-03-13T05:42:02;9.80;99.90
2897;DHT22;1458;49.728;9.228;2023-03-13T05:44:39;9.80;99.90
2897;DHT22;1458;49.728;9.228;2023-03-13T05:47:32;9.80;99.90
2897;DHT22;1458;49.728;9.228;2023-03-13T05:50:18;9.80;99.90
2897;DHT22;1458;49.728;9.228;2023-03-13T05:53:12;9.90;99.90
2897;DHT22;1458;49.728;9.228;2023-03-13T05:55:51;10.00;99.90
2897;DHT22;1458;49.728;9.228;2023-03-13T05:58:36;10.00;99.90
2897;DHT22;1458;49.728;9.228;2023-03-13T06:01:25;10.10;99.90
2897;DHT22;1458;49.728;9.228;2023-03-13T06:04:08;10.10;99.90
2897;DHT22;1458;49.728;9.228;2023-03-13T06:06:37;10.20;99.90
2897;DHT22;1458;49.728;9.228;2023-03-13T06:09:05;10.20;99.90
2897;DHT22;1458;49.728;9.228;2023-03-13T06:11:33;10.40;99.90
2897;DHT22;1458;49.728;9.228;2023-03-13T06:14:03;10.40;99.90
2897;DHT22;1458;49.728;9.228;2023-03-13T06:16:41;10.50;99.90
2897;DHT22;1458;49.728;9.228;2023-03-13T06:19:18;10.50;99.90
2897;DHT22;1458;49.728;9.228;2023-03-13T06:21:45;10.50;99.90
2897;DHT22;1458;49.728;9.228;2023-03-13T06:24:13;10.60;99.90
2897;DHT22;1458;49.728;9.228;2023-03-13T06:26:40;10.60;99.90
2897;DHT22;1458;49.728;9.228;2023-03-13T06:29:08;10.70;99.90
2897;DHT22;1458;49.728;9.228;2023-03-13T06:31:36;10.70;99.90
2897;DHT22;1458;49.728;9.228;2023-03-13T06:34:04;10.70;99.90
2897;DHT22;1458;49.728;9.228;2023-03-13T06:36:32;10.90;99.90
2897;DHT22;1458;49.728;9.228;2023-03-13T06:38:59;10.80;99.90
2897;DHT22;1458;49.728;9.228;2023-03-13T06:41:27;11.00;99.90
2897;DHT22;1458;49.728;9.228;2023-03-13T06:43:54;11.00;99.90
2897;DHT22;1458;49.728;9.228;2023-03-13T06:46:23;11.00;99.90
2897;DHT22;1458;49.728;9.228;2023-03-13T06:48:50;11.00;99.90
2897;DHT22;1458;49.728;9.228;2023-03-13T06:51:20;11.00;99.90
2897;DHT22;1458;49.728;9.228;2023-03-13T06:53:48;11.10;99.90
2897;DHT22;1458;49.728;9.228;2023-03-13T06:56:17;11.20;99.90
2897;DHT22;1458;49.728;9.228;2023-03-13T06:58:47;11.30;99.90
2897;DHT22;1458;49.728;9.228;2023-03-13T07:01:15;11.40;99.90
2897;DHT22;1458;49.728;9.228;2023-03-13T07:03:43;11.50;99.90
2897;DHT22;1458;49.728;9.228;2023-03-13T07:06:11;11.50;99.90
2897;DHT22;1458;49.728;9.228;2023-03-13T07:08:40;11.70;99.90
2897;DHT22;1458;49.728;9.228;2023-03-13T07:11:09;11.80;99.90
2897;DHT22;1458;49.728;9.228;2023-03-13T07:13:37;11.80;99.90
2897;DHT22;1458;49.728;9.228;2023-03-13T07:16:06;11.80;99.90
2897;DHT22;1458;49.728;9.228;2023-03-13T07:18:35;11.80;99.90
2897;DHT22;1458;49.728;9.228;2023-03-13T07:21:04;11.90;99.90
2897;DHT22;1458;49.728;9.228;2023-03-13T07:23:33;11.90;99.90
2897;DHT22;1458;49.728;9.228;2023-03-13T07:26:03;11.90;99.90
2897;DHT22;1458;49.728;9.228;2023-03-13T07:28:32;12.10;99.90
2897;DHT22;1458;49.728;9.228;2023-03-13T07:31:04;12.20;99.90
2897;DHT22;1458;49.728;9.228;2023-03-13T07:33:32;12.20;99.90
2897;DHT22;1458;49.728;9.228;2023-03-13T07:36:00;12.40;99.90
2897;DHT22;1458;49.728;9.228;2023-03-13T07:38:27;12.40;99.90
2897;DHT22;1458;49.728;9.228;2023-03-13T07:40:56;12.50;99.90
2897;DHT22;1458;49.728;9.228;2023-03-13T07:43:25;12.40;99.90
2897;DHT22;1458;49.728;9.228;2023-03-13T07:45:55;12.50;99.90
2897;DHT22;1458;49.728;9.228;2023-03-13T07:48:24;12.50;99.90
2897;DHT22;1458;49.728;9.228;2023-03-13T07:50:55;12.40;99.90
2897;DHT22;1458;49.728;9.228;2023-03-13T07:53:23;12.50;99.90
2897;DHT22;1458;49.728;9.228;2023-03-13T07:55:55;12.50;99.90
2897;DHT22;1458;49.728;9.228;2023-03-13T07:58:26;12.50;99.90
2897;DHT22;1458;49.728;9.228;2023-03-13T08:00:55;12.70;99.90
2897;DHT22;1458;49.728;9.228;2023-03-13T08:03:23;12.70;99.90
2897;DHT22;1458;49.728;9.228;2023-03-13T08:05:58;12.70;99.90
2897;DHT22;1458;49.728;9.228;2023-03-13T08:08:26;12.70;99.90
2897;DHT22;1458;49.728;9.228;2023-03-13T08:10:58;12.70;99.90
2897;DHT22;1458;49.728;9.228;2023-03-13T08:13:29;12.70;99.90
2897;DHT22;1458;49.728;9.228;2023-03-13T08:16:04;12.80;99.90
2897;DHT22;1458;49.728;9.228;2023-03-13T08:18:34;12.90;99.90
2897;DHT22;1458;49.728;9.228;2023-03-13T08:21:03;12.90;99.90
2897;DHT22;1458;49.728;9.228;2023-03-13T08:23:32;12.90;99.90
2897;DHT22;1458;49.728;9.228;2023-03-13T08:26:04;12.90;99.90
2897;DHT22;1458;49.728;9.228;2023-03-13T08:28:34;12.90;99.90
2897;DHT22;1458;49.728;9.228;2023-03-13T08:31:09;12.80;99.90
2897;DHT22;1458;49.728;9.228;2023-03-13T08:33:37;12.90;99.90
2897;DHT22;1458;49.728;9.228;2023-03-13T08:36:10;13.00;99.90
2897;DHT22;1458;49.728;9.228;2023-03-13T08:38:38;13.00;99.90
2897;DHT22;1458;49.728;9.228;2023-03-13T08:41:07;13.00;99.90
2897;DHT22;1458;49.728;9.228;2023-03-13T08:43:36;13.00;99.90
2897;DHT22;1458;49.728;9.228;2023-03-13T08:46:04;13.10;99.90
2897;DHT22;1458;49.728;9.228;2023-03-13T08:48:31;13.10;99.90
2897;DHT22;1458;49.728;9.228;2023-03-13T08:51:00;13.10;99.90
2897;DHT22;1458;49.728;9.228;2023-03-13T08:53:29;13.20;99.90
2897;DHT22;1458;49.728;9.228;2023-03-13T08:55:57;13.10;99.90
2897;DHT22;1458;49.728;9.228;2023-03-13T08:58:25;13.10;99.90
2897;DHT22;1458;49.728;9.228;2023-03-13T09:00:59;13.00;99.90
2897;DHT22;1458;49.728;9.228;2023-03-13T09:03:27;13.10;99.90
2897;DHT22;1458;49.728;9.228;2023-03-13T09:05:55;13.10;99.90
2897;DHT22;1458;49.728;9.228;2023-03-13T09:08:23;13.00;99.90
2897;DHT22;1458;49.728;9.228;2023-03-13T09:10:54;13.10;99.90
2897;DHT22;1458;49.728;9.228;2023-03-13T09:13:21;13.20;99.90
2897;DHT22;1458;49.728;9.228;2023-03-13T09:15:54;13.20;99.90
2897;DHT22;1458;49.728;9.228;2023-03-13T09:18:22;13.20;99.90
2897;DHT22;1458;49.728;9.228;2023-03-13T09:20:50;13.30;99.90
2897;DHT22;1458;49.728;9.228;2023-03-13T09:23:18;13.40;99.90
2897;DHT22;1458;49.728;9.228;2023-03-13T09:25:47;13.40;99.90
2897;DHT22;1458;49.728;9.228;2023-03-13T09:28:14;13.30;99.90
2897;DHT22;1458;49.728;9.228;2023-03-13T09:30:41;13.20;99.90
2897;DHT22;1458;49.728;9.228;2023-03-13T09:33:10;13.30;99.90
2897;DHT22;1458;49.728;9.228;2023-03-13T09:35:38;13.40;99.90
2897;DHT22;1458;49.728;9.228;2023-03-13T09:38:05;13.40;99.90
2897;DHT22;1458;49.728;9.228;2023-03-13T09:40:37;13.30;99.90
2897;DHT22;1458;49.728;9.228;2023-03-13T09:43:21;13.40;99.90
2897;DHT22;1458;49.728;9.228;2023-03-13T09:45:57;13.30;99.90
2897;DHT22;1458;49.728;9.228;2023-03-13T09:48:31;13.40;99.90
2897;DHT22;1458;49.728;9.228;2023-03-13T09:51:04;13.50;99.90
2897;DHT22;1458;49.728;9.228;2023-03-13T09:53:37;13.40;99.90
2897;DHT22;1458;49.728;9.228;2023-03-13T09:56:15;13.40;99.90
2897;DHT22;1458;49.728;9.228;2023-03-13T09:58:49;13.50;99.90
2897;DHT22;1458;49.728;9.228;2023-03-13T10:01:22;13.50;99.90
2897;DHT22;1458;49.728;9.228;2023-03-13T10:04:00;13.70;99.90
2897;DHT22;1458;49.728;9.228;2023-03-13T10:06:34;13.80;99.90
2897;DHT22;1458;49.728;9.228;2023-03-13T10:09:15;13.70;99.90
2897;DHT22;1458;49.728;9.228;2023-03-13T10:11:50;13.80;99.90
2897;DHT22;1458;49.728;9.228;2023-03-13T10:14:25;13.80;99.90
2897;DHT22;1458;49.728;9.228;2023-03-13T10:17:02;13.90;99.90
2897;DHT22;1458;49.728;9.228;2023-03-13T10:19:36;14.00;99.90
2897;DHT22;1458;49.728;9.228;2023-03-13T10:22:12;14.20;99.90
2897;DHT22;1458;49.728;9.228;2023-03-13T10:24:48;14.30;99.90
2897;DHT22;1458;49.728;9.228;2023-03-13T10:27:16;14.30;99.90
2897;DHT22;1458;49.728;9.228;2023-03-13T10:29:44;14.40;99.90
2897;DHT22;1458;49.728;9.228;2023-03-13T10:32:13;14.60;99.90
2897;DHT22;1458;49.728;9.228;2023-03-13T10:34:52;14.80;99.90
2897;DHT22;1458;49.728;9.228;2023-03-13T10:37:23;15.10;99.90
2897;DHT22;1458;49.728;9.228;2023-03-13T10:39:52;15.20;99.90
2897;DHT22;1458;49.728;9.228;2023-03-13T10:42:26;15.30;99.90
2897;DHT22;1458;49.728;9.228;2023-03-13T10:44:57;15.30;99.90
2897;DHT22;1458;49.728;9.228;2023-03-13T10:47:25;15.20;99.90
2897;DHT22;1458;49.728;9.228;2023-03-13T10:49:56;15.20;99.90
2897;DHT22;1458;49.728;9.228;2023-03-13T10:52:33;15.10;99.90
2897;DHT22;1458;49.728;9.228;2023-03-13T10:55:04;15.10;99.90
2897;DHT22;1458;49.728;9.228;2023-03-13T10:57:34;15.10;99.90
2897;DHT22;1458;49.728;9.228;2023-03-13T11:00:06;15.10;99.90
2897;DHT22;1458;49.728;9.228;2023-03-13T11:02:54;15.00;99.90
2897;DHT22;1458;49.728;9.228;2023-03-13T11:05:36;15.20;99.90
2897;DHT22;1458;49.728;9.228;2023-03-13T11:08:22;15.50;99.90
2897;DHT22;1458;49.728;9.228;2023-03-13T11:10:55;15.60;99.90
2897;DHT22;1458;49.728;9.228;2023-03-13T11:13:42;15.70;99.90
2897;DHT22;1458;49.728;9.228;2023-03-13T11:16:17;16.10;99.90
2897;DHT22;1458;49.728;9.228;2023-03-13T11:19:09;16.40;99.90
2897;DHT22;1458;49.728;9.228;2023-03-13T11:22:03;16.70;98.90
2897;DHT22;1458;49.728;9.228;2023-03-13T11:24:41;17.00;99.40
2897;DHT22;1458;49.728;9.228;2023-03-13T11:27:18;17.50;96.00
2897;DHT22;1458;49.728;9.228;2023-03-13T11:30:00;17.40;95.20
2897;DHT22;1458;49.728;9.228;2023-03-13T11:32:39;17.20;94.40
2897;DHT22;1458;49.728;9.228;2023-03-13T11:35:19;17.20;95.40
2897;DHT22;1458;49.728;9.228;2023-03-13T11:37:54;17.10;94.30
2897;DHT22;1458;49.728;9.228;2023-03-13T11:40:25;17.20;94.10
2897;DHT22;1458;49.728;9.228;2023-03-13T11:43:08;17.10;93.10
2897;DHT22;1458;49.728;9.228;2023-03-13T11:46:07;17.20;93.80
2897;DHT22;1458;49.728;9.228;2023-03-13T11:49:00;17.40;92.90
2897;DHT22;1458;49.728;9.228;2023-03-13T11:52:01;17.40;93.20
2897;DHT22;1458;49.728;9.228;2023-03-13T11:54:47;17.50;92.60
2897;DHT22;1458;49.728;9.228;2023-03-13T11:57:26;17.60;92.10
2897;DHT22;1458;49.728;9.228;2023-03-13T12:00:13;17.80;92.50
2897;DHT22;1458;49.728;9.228;2023-03-13T12:02:48;17.90;92.00
2897;DHT22;1458;49.728;9.228;2023-03-13T12:05:18;17.90;91.40
2897;DHT22;1458;49.728;9.228;2023-03-13T12:07:50;17.80;91.50
2897;DHT22;1458;49.728;9.228;2023-03-13T12:10:25;17.80;91.40
2897;DHT22;1458;49.728;9.228;2023-03-13T12:13:00;17.60;91.60
2897;DHT22;1458;49.728;9.228;2023-03-13T12:15:33;17.90;91.60
2897;DHT22;1458;49.728;9.228;2023-03-13T12:18:08;17.60;90.10
2897;DHT22;1458;49.728;9.228;2023-03-13T12:20:43;17.80;91.90
2897;DHT22;1458;49.728;9.228;2023-03-13T12:23:17;17.90;91.70
2897;DHT22;1458;49.728;9.228;2023-03-13T12:25:51;17.90;90.00
2897;DHT22;1458;49.728;9.228;2023-03-13T12:28:32;17.80;89.40
2897;DHT22;1458;49.728;9.228;2023-03-13T12:31:16;17.90;88.60
2897;DHT22;1458;49.728;9.228;2023-03-13T12:33:52;18.20;89.30
2897;DHT22;1458;49.728;9.228;2023-03-13T12:36:26;18.50;89.50
2897;DHT22;1458;49.728;9.228;2023-03-13T12:39:05;18.30;87.40
2897;DHT22;1458;49.728;9.228;2023-03-13T12:41:43;18.40;88.70
2897;DHT22;1458;49.728;9.228;2023-03-13T12:44:16;18.40;86.20
2897;DHT22;1458;49.728;9.228;2023-03-13T12:46:45;18.30;87.80
2897;DHT22;1458;49.728;9.228;2023-03-13T12:59:14;17.80;87.30
2897;DHT22;1458;49.728;9.228;2023-03-13T13:01:44;17.80;86.90
2897;DHT22;1458;49.728;9.228;2023-03-13T13:04:14;17.90;87.30
2897;DHT22;1458;49.728;9.228;2023-03-13T13:06:53;17.90;85.50
2897;DHT22;1458;49.728;9.228;2023-03-13T13:09:25;17.90;87.70
2897;DHT22;1458;49.728;9.228;2023-03-13T13:11:56;18.00;87.70
2897;DHT22;1458;49.728;9.228;2023-03-13T13:14:54;18.00;84.70
2897;DHT22;1458;49.728;9.228;2023-03-13T13:20:46;18.20;88.00
2897;DHT22;1458;49.728;9.228;2023-03-13T13:23:35;18.50;85.30
2897;DHT22;1458;49.728;9.228;2023-03-13T13:26:37;18.50;84.50
2897;DHT22;1458;49.728;9.228;2023-03-13T13:32:37;18.60;84.90
2897;DHT22;1458;49.728;9.228;2023-03-13T13:35:22;18.70;83.50
2897;DHT22;1458;49.728;9.228;2023-03-13T13:38:29;18.80;82.60
2897;DHT22;1458;49.728;9.228;2023-03-13T13:41:22;19.00;83.30
2897;DHT22;1458;49.728;9.228;2023-03-13T13:44:22;18.90;82.80
2897;DHT22;1458;49.728;9.228;2023-03-13T13:46:54;18.70;82.70
2897;DHT22;1458;49.728;9.228;2023-03-13T13:49:37;18.60;83.10
2897;DHT22;1458;49.728;9.228;2023-03-13T13:52:38;18.50;82.90
2897;DHT22;1458;49.728;9.228;2023-03-13T13:55:41;18.30;84.30
2897;DHT22;1458;49.728;9.228;2023-03-13T13:58:17;18.00;84.80
2897;DHT22;1458;49.728;9.228;2023-03-13T14:00:52;17.90;86.60
2897;DHT22;1458;49.728;9.228;2023-03-13T14:03:23;17.80;86.20
2897;DHT22;1458;49.728;9.228;2023-03-13T14:05:54;17.90;85.90
2897;DHT22;1458;49.728;9.228;2023-03-13T14:08:26;17.70;86.60
2897;DHT22;1458;49.728;9.228;2023-03-13T14:11:06;17.70;87.00
2897;DHT22;1458;49.728;9.228;2023-03-13T14:13:40;17.70;87.20
2897;DHT22;1458;49.728;9.228;2023-03-13T14:16:20;17.80;86.20
2897;DHT22;1458;49.728;9.228;2023-03-13T14:18:52;17.90;86.30
2897;DHT22;1458;49.728;9.228;2023-03-13T14:21:21;17.90;86.60
2897;DHT22;1458;49.728;9.228;2023-03-13T14:23:49;18.10;85.20
2897;DHT22;1458;49.728;9.228;2023-03-13T14:26:18;18.10;85.40
2897;DHT22;1458;49.728;9.228;2023-03-13T14:28:48;18.10;84.50
2897;DHT22;1458;49.728;9.228;2023-03-13T14:31:25;17.90;85.10
2897;DHT22;1458;49.728;9.228;2023-03-13T14:33:57;17.90;85.10
2897;DHT22;1458;49.728;9.228;2023-03-13T14:36:25;17.80;85.80
2897;DHT22;1458;49.728;9.228;2023-03-13T14:38:55;17.80;86.20
2897;DHT22;1458;49.728;9.228;2023-03-13T14:41:27;17.80;86.20
2897;DHT22;1458;49.728;9.228;2023-03-13T14:44:02;18.10;85.00
2897;DHT22;1458;49.728;9.228;2023-03-13T14:46:33;18.20;84.70
2897;DHT22;1458;49.728;9.228;2023-03-13T14:49:07;18.30;84.20
2897;DHT22;1458;49.728;9.228;2023-03-13T14:51:42;18.50;82.30
2897;DHT22;1458;49.728;9.228;2023-03-13T14:54:28;18.50;82.90
2897;DHT22;1458;49.728;9.228;2023-03-13T14:57:05;18.60;81.30
2897;DHT22;1458;49.728;9.228;2023-03-13T14:59:41;18.60;82.50
2897;DHT22;1458;49.728;9.228;2023-03-13T15:02:15;18.90;80.90
2897;DHT22;1458;49.728;9.228;2023-03-13T15:04:56;19.00;81.00
2897;DHT22;1458;49.728;9.228;2023-03-13T15:07:26;18.90;80.40
2897;DHT22;1458;49.728;9.228;2023-03-13T15:10:02;18.80;80.90
2897;DHT22;1458;49.728;9.228;2023-03-13T15:12:44;18.80;80.60
2897;DHT22;1458;49.728;9.228;2023-03-13T15:15:12;18.60;81.20
2897;DHT22;1458;49.728;9.228;2023-03-13T15:17:39;18.50;82.90
2897;DHT22;1458;49.728;9.228;2023-03-13T15:20:11;18.50;80.40
2897;DHT22;1458;49.728;9.228;2023-03-13T15:22:41;18.50;81.10
2897;DHT22;1458;49.728;9.228;2023-03-13T15:25:15;18.40;81.90
2897;DHT22;1458;49.728;9.228;2023-03-13T15:27:45;18.30;82.00
2897;DHT22;1458;49.728;9.228;2023-03-13T15:30:14;18.20;83.10
2897;DHT22;1458;49.728;9.228;2023-03-13T15:32:42;18.20;82.70
2897;DHT22;1458;49.728;9.228;2023-03-13T15:35:22;18.10;82.10
2897;DHT22;1458;49.728;9.228;2023-03-13T15:37:53;18.00;82.60
2897;DHT22;1458;49.728;9.228;2023-03-13T15:40:21;17.90;82.50
2897;DHT22;1458;49.728;9.228;2023-03-13T15:42:50;17.70;82.70
2897;DHT22;1458;49.728;9.228;2023-03-13T15:45:17;17.70;82.50
2897;DHT22;1458;49.728;9.228;2023-03-13T15:47:45;17.60;83.60
2897;DHT22;1458;49.728;9.228;2023-03-13T15:50:15;17.60;83.90
2897;DHT22;1458;49.728;9.228;2023-03-13T15:52:47;17.50;84.60
2897;DHT22;1458;49.728;9.228;2023-03-13T15:55:14;17.50;84.00
2897;DHT22;1458;49.728;9.228;2023-03-13T15:57:45;17.50;83.40
2897;DHT22;1458;49.728;9.228;2023-03-13T16:00:17;17.50;82.60
2897;DHT22;1458;49.728;9.228;2023-03-13T16:02:45;17.60;82.20
2897;DHT22;1458;49.728;9.228;2023-03-13T16:05:13;17.60;82.20
2897;DHT22;1458;49.728;9.228;2023-03-13T16:07:42;17.50;82.20
2897;DHT22;1458;49.728;9.228;2023-03-13T16:10:15;17.50;82.20
2897;DHT22;1458;49.728;9.228;2023-03-13T16:12:43;17.40;82.10
2897;DHT22;1458;49.728;9.228;2023-03-13T16:15:11;17.40;82.80
2897;DHT22;1458;49.728;9.228;2023-03-13T16:17:38;17.40;82.50
2897;DHT22;1458;49.728;9.228;2023-03-13T16:20:12;17.50;82.20
2897;DHT22;1458;49.728;9.228;2023-03-13T16:22:43;17.60;82.30
2897;DHT22;1458;49.728;9.228;2023-03-13T16:25:11;16.40;73.80
2897;DHT22;1458;49.728;9.228;2023-03-13T16:27:39;15.00;89.90
2897;DHT22;1458;49.728;9.228;2023-03-13T16:30:15;13.70;96.00
2897;DHT22;1458;49.728;9.228;2023-03-13T16:32:44;12.90;99.90
2897;DHT22;1458;49.728;9.228;2023-03-13T16:35:11;12.60;99.90
2897;DHT22;1458;49.728;9.228;2023-03-13T16:37:39;12.40;99.90
2897;DHT22;1458;49.728;9.228;2023-03-13T16:40:17;12.30;99.90
2897;DHT22;1458;49.728;9.228;2023-03-13T16:42:46;12.20;99.90
2897;DHT22;1458;49.728;9.228;2023-03-13T16:45:14;12.10;99.90
2897;DHT22;1458;49.728;9.228;2023-03-13T16:47:43;12.30;99.90
2897;DHT22;1458;49.728;9.228;2023-03-13T16:50:21;12.20;99.90
2897;DHT22;1458;49.728;9.228;2023-03-13T16:52:51;12.20;99.90
2897;DHT22;1458;49.728;9.228;2023-03-13T16:55:21;12.10;99.90
2897;DHT22;1458;49.728;9.228;2023-03-13T16:57:53;12.10;99.90
2897;DHT22;1458;49.728;9.228;2023-03-13T17:00:22;12.10;99.90
2897;DHT22;1458;49.728;9.228;2023-03-13T17:02:50;12.20;99.90
2897;DHT22;1458;49.728;9.228;2023-03-13T17:05:18;12.30;99.90